Tipton, Missouri
Current Conditions -  °F | °C
As of 6:15 AM on Friday 21 Nov 2014 (Local Time) from KVER Reporting Station
Clear Clear  
Wind Chill: 16°   Ceiling: Unl
Heat Index: 24°   Visibility: 10mi
Dew Point: 15°   Wind: 8mph
Humidity: 69%   Direction: 100°E
Pressure: 30.3"   Gusts: NA
Location:  38.66°N, 92.78°W
Report Text: KVER 211215Z AUTO 10007KT 10SM CLR M04/M09 A3030 RMK AO2 T10421092
Loading
Personal Weather Stations






























Interactive Weather Map New forecast layout! Learn more

10-Day Weather Forecast

Advertisements
Track Severe Weather on mobile